Time;durP1;ratioP1;P1;durP2;ratioP2;P2;SDS_P1;SDS_P2;PMS_P1;PMS_P2;Temp;Humidity;BMP_temperature;BMP_pressure;BME280_temperature;BME280_humidity;BME280_pressure;Samples;Min_cycle;Max_cycle;Signal;HPM_P1;HPM_P2
2022/04/14 00:01:03;;;;;;;6.35;3.33;;;19.50;89.80;;;;;;5082515;28;20125;-63
2022/04/14 00:03:29;;;;;;;6.25;2.88;;;19.50;89.90;;;;;;5081250;28;20036;-63
2022/04/14 00:05:55;;;;;;;5.50;2.70;;;19.40;89.70;;;;;;5093673;28;20040;-62
2022/04/14 00:08:20;;;;;;;6.22;2.90;;;19.30;89.90;;;;;;5084307;28;20138;-62
2022/04/14 00:10:46;;;;;;;6.47;2.97;;;19.30;86.70;;;;;;5075838;28;20124;-62
2022/04/14 00:13:12;;;;;;;5.45;3.10;;;19.50;89.70;;;;;;5073791;28;20058;-62
2022/04/14 00:15:38;;;;;;;6.18;2.97;;;19.50;89.70;;;;;;5075207;28;20041;-63
2022/04/14 00:18:04;;;;;;;7.78;2.92;;;;;;;;;;5059356;28;20582;-62
2022/04/14 00:20:30;;;;;;;5.88;3.20;;;19.50;89.90;;;;;;5077066;28;20041;-62
2022/04/14 00:22:56;;;;;;;6.43;3.17;;;19.50;89.70;;;;;;5075269;28;20066;-62
2022/04/14 00:25:21;;;;;;;7.10;3.45;;;19.50;89.60;;;;;;5076008;28;20083;-62
2022/04/14 00:27:47;;;;;;;9.40;3.40;;;19.50;87.00;;;;;;5073932;28;20044;-62
2022/04/14 00:30:13;;;;;;;5.70;3.10;;;19.40;88.50;;;;;;5076979;28;20101;-62
2022/04/14 00:32:39;;;;;;;6.22;3.15;;;19.60;89.90;;;;;;5088076;28;20075;-62
2022/04/14 00:35:05;;;;;;;7.03;3.30;;;19.60;89.90;;;;;;5072677;28;20051;-62
2022/04/14 00:37:31;;;;;;;6.13;3.42;;;19.40;89.50;;;;;;5074938;28;20044;-62
2022/04/14 00:39:56;;;;;;;6.60;3.10;;;19.50;89.60;;;;;;5076312;28;20165;-62
2022/04/14 00:42:22;;;;;;;5.63;3.20;;;19.30;86.60;;;;;;5076098;28;20107;-62
2022/04/14 00:44:48;;;;;;;7.00;3.38;;;19.50;89.70;;;;;;5075905;28;20048;-63
2022/04/14 00:47:14;;;;;;;8.18;3.45;;;19.40;86.70;;;;;;5075027;28;20044;-62
2022/04/14 00:49:40;;;;;;;6.72;3.38;;;19.50;89.60;;;;;;5076042;28;20044;-62
2022/04/14 00:52:06;;;;;;;6.45;3.10;;;19.50;89.90;;;;;;5075468;28;20486;-62
2022/04/14 00:54:32;;;;;;;7.47;3.60;;;19.30;86.80;;;;;;5091016;28;20036;-63
2022/04/14 00:56:58;;;;;;;6.85;4.00;;;19.60;89.80;;;;;;5090564;28;20405;-62
2022/04/14 00:59:24;;;;;;;8.45;3.53;;;19.40;86.80;;;;;;5094855;28;20044;-63
2022/04/14 01:01:50;;;;;;;7.30;3.58;;;19.60;89.60;;;;;;5076722;28;20052;-62
2022/04/14 01:04:16;;;;;;;6.57;3.30;;;19.60;86.80;;;;;;5095303;28;20074;-62
2022/04/14 01:06:41;;;;;;;7.40;3.33;;;19.60;87.00;;;;;;5084043;28;20036;-63
2022/04/14 01:09:16;;;;;;;6.22;3.35;;;19.50;89.60;;;;;;5045339;28;20131;-63
2022/04/14 01:11:46;;;;;;;6.95;3.30;;;19.20;86.60;;;;;;5092611;28;20048;-63
2022/04/14 01:14:27;;;;;;;5.38;3.05;;;19.40;89.60;;;;;;5094393;28;20103;-62
2022/04/14 01:16:57;;;;;;;9.82;3.55;;;19.40;89.60;;;;;;5087856;28;20047;-62
2022/04/14 01:19:23;;;;;;;9.52;4.15;;;19.30;89.70;;;;;;5074464;28;20048;-63
2022/04/14 01:22:06;;;;;;;8.35;4.40;;;19.30;89.40;;;;;;5059275;28;20561;-62
2022/04/14 01:24:32;;;;;;;8.55;3.13;;;19.40;89.70;;;;;;5094653;28;20048;-63
2022/04/14 01:26:59;;;;;;;5.55;2.95;;;19.60;89.60;;;;;;5084124;28;20037;-63
2022/04/14 01:29:25;;;;;;;7.50;3.20;;;19.30;89.40;;;;;;5073941;28;20067;-62
2022/04/14 01:31:51;;;;;;;7.18;3.53;;;19.20;89.30;;;;;;5074191;28;20070;-63
2022/04/14 01:34:17;;;;;;;6.60;3.55;;;19.60;89.50;;;;;;5074187;28;20075;-62
2022/04/14 01:36:43;;;;;;;7.72;3.97;;;19.40;89.80;;;;;;5074154;28;20466;-62
2022/04/14 01:39:10;;;;;;;6.40;3.58;;;19.40;87.20;;;;;;5075939;28;20101;-63
2022/04/14 01:41:38;;;;;;;7.68;3.85;;;19.40;89.40;;;;;;5073732;28;20115;-62
2022/04/14 01:44:03;;;;;;;8.52;4.00;;;19.30;89.60;;;;;;5086391;28;20044;-62
2022/04/14 01:46:29;;;;;;;6.68;3.47;;;19.20;89.20;;;;;;5091803;28;20058;-62
2022/04/14 01:48:55;;;;;;;7.05;3.60;;;19.40;89.40;;;;;;5075426;28;20044;-63
2022/04/14 01:51:21;;;;;;;7.95;4.40;;;19.20;89.30;;;;;;5073625;28;20044;-63
2022/04/14 01:53:46;;;;;;;6.68;3.42;;;19.30;88.30;;;;;;5072145;28;20048;-62
2022/04/14 01:56:12;;;;;;;7.30;3.90;;;19.30;86.30;;;;;;5073917;28;20068;-62
2022/04/14 01:58:38;;;;;;;8.88;4.30;;;;;;;;;;5073697;28;20107;-63
2022/04/14 02:01:04;;;;;;;7.82;3.60;;;;;;;;;;5087466;28;20097;-63
2022/04/14 02:03:31;;;;;;;7.38;3.83;;;;;;;;;;5083888;28;20040;-62
2022/04/14 02:05:56;;;;;;;7.78;4.28;;;19.30;89.20;;;;;;5073982;28;20072;-62
2022/04/14 02:08:22;;;;;;;7.30;4.03;;;19.30;86.50;;;;;;5073360;28;20516;-62
2022/04/14 02:10:48;;;;;;;7.65;3.72;;;19.20;89.10;;;;;;5075562;28;20041;-62
2022/04/14 02:13:13;;;;;;;8.77;3.70;;;19.10;89.30;;;;;;5093032;28;20390;-62
2022/04/14 02:15:39;;;;;;;7.90;3.72;;;19.20;86.10;;;;;;5093880;28;20463;-63
2022/04/14 02:18:05;;;;;;;7.90;4.13;;;19.30;89.20;;;;;;5078074;28;20072;-62
2022/04/14 02:20:31;;;;;;;6.72;4.50;;;19.40;86.60;;;;;;5074695;28;20473;-62
2022/04/14 02:22:57;;;;;;;5.30;3.50;;;19.10;89.20;;;;;;5076803;28;20040;-63
2022/04/14 02:25:23;;;;;;;6.93;3.75;;;19.20;89.20;;;;;;5072748;28;20049;-62
2022/04/14 02:27:48;;;;;;;8.50;4.55;;;19.20;89.10;;;;;;5072000;28;20048;-62
2022/04/14 02:30:14;;;;;;;8.95;4.40;;;19.00;89.00;;;;;;5073204;28;20132;-62
2022/04/14 02:32:40;;;;;;;8.05;4.50;;;19.30;86.60;;;;;;5087253;28;20510;-62
2022/04/14 02:35:06;;;;;;;8.50;4.07;;;19.10;86.10;;;;;;5080229;28;20041;-62
2022/04/14 02:37:32;;;;;;;8.05;4.00;;;19.10;89.10;;;;;;5073088;28;20474;-62
2022/04/14 02:39:57;;;;;;;10.30;4.50;;;19.30;89.40;;;;;;5076985;28;20119;-63
2022/04/14 02:42:23;;;;;;;9.18;4.53;;;18.70;88.90;;;;;;5086680;28;20058;-62
2022/04/14 02:44:49;;;;;;;7.72;4.15;;;19.20;89.20;;;;;;5076151;28;20047;-62
2022/04/14 02:47:15;;;;;;;8.80;4.63;;;19.20;86.30;;;;;;5073285;28;20060;-62
2022/04/14 02:49:40;;;;;;;10.02;4.00;;;19.00;89.00;;;;;;5072088;28;20140;-62
2022/04/14 02:52:07;;;;;;;8.18;4.63;;;19.30;89.20;;;;;;5075170;28;20521;-62
2022/04/14 02:54:37;;;;;;;7.80;4.50;;;19.10;89.10;;;;;;5073493;28;20409;-63
2022/04/14 02:57:07;;;;;;;8.18;4.40;;;19.00;86.40;;;;;;5072129;28;20053;-62
2022/04/14 02:59:33;;;;;;;8.10;4.72;;;19.10;86.90;;;;;;5072932;28;20040;-62
2022/04/14 03:01:59;;;;;;;8.13;4.53;;;19.20;89.30;;;;;;5077600;28;20493;-63
2022/04/14 03:04:25;;;;;;;9.60;4.25;;;19.00;86.40;;;;;;5079095;28;20130;-62
2022/04/14 03:06:51;;;;;;;7.57;4.43;;;19.20;89.00;;;;;;5072790;28;20390;-62
2022/04/14 03:09:17;;;;;;;9.15;4.43;;;19.10;86.50;;;;;;5082941;28;20044;-62
2022/04/14 03:11:43;;;;;;;7.43;4.30;;;;;;;;;;5073028;28;20044;-63
2022/04/14 03:14:08;;;;;;;9.73;4.78;;;18.90;89.10;;;;;;5075358;28;20131;-62
2022/04/14 03:16:34;;;;;;;9.70;4.75;;;19.10;85.90;;;;;;5072687;28;20492;-62
2022/04/14 03:19:00;;;;;;;7.18;4.47;;;18.80;88.90;;;;;;5073600;28;20051;-62
2022/04/14 03:21:26;;;;;;;9.85;5.28;;;18.80;88.90;;;;;;5076701;28;20116;-63
2022/04/14 03:23:51;;;;;;;8.40;4.70;;;19.00;89.00;;;;;;5090381;28;20051;-62
2022/04/14 03:26:17;;;;;;;8.40;5.18;;;19.20;89.10;;;;;;5093389;28;20167;-62
2022/04/14 03:28:43;;;;;;;10.45;5.18;;;19.10;88.90;;;;;;5096924;28;20044;-62
2022/04/14 03:31:10;;;;;;;10.35;5.25;;;19.00;88.90;;;;;;5096804;28;20036;-62
2022/04/14 03:33:36;;;;;;;8.65;5.05;;;19.00;88.90;;;;;;5094104;28;20164;-62
2022/04/14 03:36:01;;;;;;;9.15;5.53;;;18.90;86.10;;;;;;5086676;28;20090;-62
2022/04/14 03:38:27;;;;;;;8.93;5.72;;;19.00;88.90;;;;;;5076074;28;20076;-62
2022/04/14 03:40:53;;;;;;;9.65;5.65;;;19.20;86.30;;;;;;5076419;28;20044;-63
2022/04/14 03:43:19;;;;;;;7.78;5.30;;;18.90;88.80;;;;;;5091117;28;20059;-62
2022/04/14 03:45:45;;;;;;;11.05;5.70;;;18.70;88.60;;;;;;5079753;28;20049;-62
2022/04/14 03:48:10;;;;;;;11.90;6.45;;;19.00;86.00;;;;;;5093546;28;20055;-62
2022/04/14 03:50:36;;;;;;;9.23;5.68;;;19.10;88.90;;;;;;5096441;28;20077;-62
2022/04/14 03:53:02;;;;;;;9.30;5.55;;;18.90;86.10;;;;;;5091272;28;20036;-62
2022/04/14 03:55:28;;;;;;;9.73;6.75;;;18.90;88.70;;;;;;5088748;28;20401;-62
2022/04/14 03:57:53;;;;;;;10.35;5.63;;;18.90;89.00;;;;;;5076073;28;20040;-62
2022/04/14 04:00:19;;;;;;;11.07;6.45;;;19.00;86.10;;;;;;5090746;28;20052;-63
2022/04/14 04:02:46;;;;;;;9.63;5.95;;;18.90;88.80;;;;;;5083611;28;20521;-62
2022/04/14 04:05:12;;;;;;;9.95;6.65;;;18.80;88.70;;;;;;5074669;28;20060;-63
2022/04/14 04:07:38;;;;;;;12.63;6.88;;;18.80;86.40;;;;;;5076133;28;20032;-62
2022/04/14 04:10:05;;;;;;;12.05;6.68;;;18.80;88.90;;;;;;5075851;28;20051;-62
2022/04/14 04:12:31;;;;;;;9.45;6.30;;;18.80;88.90;;;;;;5058373;28;20044;-62
2022/04/14 04:14:57;;;;;;;12.15;6.57;;;18.70;88.60;;;;;;5075702;28;20051;-62
2022/04/14 04:17:22;;;;;;;12.10;6.25;;;18.80;86.00;;;;;;5077217;28;20464;-62
2022/04/14 04:19:48;;;;;;;10.77;6.95;;;18.70;88.10;;;;;;5074061;28;20053;-62
2022/04/14 04:22:14;;;;;;;10.35;7.35;;;19.00;89.00;;;;;;5075598;28;20040;-62
2022/04/14 04:24:40;;;;;;;13.38;6.47;;;;;;;;;;5081560;28;20048;-64
2022/04/14 04:27:06;;;;;;;9.95;6.45;;;18.80;88.30;;;;;;5092353;28;20541;-62
2022/04/14 04:29:32;;;;;;;11.63;6.72;;;18.60;86.00;;;;;;5091986;28;20131;-62
2022/04/14 04:31:59;;;;;;;10.18;6.60;;;18.90;88.70;;;;;;5081078;28;20087;-62
2022/04/14 04:34:24;;;;;;;11.50;6.90;;;18.70;88.70;;;;;;5064287;28;20052;-63
2022/04/14 04:36:50;;;;;;;9.35;6.53;;;18.80;88.80;;;;;;5095599;28;20109;-62
2022/04/14 04:39:16;;;;;;;11.88;6.38;;;18.70;88.70;;;;;;5076970;28;20452;-62
2022/04/14 04:41:42;;;;;;;12.00;7.20;;;18.60;88.50;;;;;;5074900;28;20049;-62
2022/04/14 04:44:09;;;;;;;13.88;6.50;;;18.80;88.60;;;;;;5075248;28;20101;-62
2022/04/14 04:46:35;;;;;;;10.30;6.90;;;18.90;88.80;;;;;;5092972;28;20123;-62
2022/04/14 04:49:01;;;;;;;12.57;7.45;;;18.70;85.90;;;;;;5085231;28;20120;-62
2022/04/14 04:51:27;;;;;;;10.70;6.70;;;18.80;88.60;;;;;;5090747;28;20047;-62
2022/04/14 04:53:53;;;;;;;11.82;7.38;;;18.70;88.60;;;;;;5094871;28;20048;-62
2022/04/14 04:56:19;;;;;;;12.70;7.78;;;18.80;85.80;;;;;;5075054;28;20047;-62
2022/04/14 04:58:45;;;;;;;12.82;7.80;;;18.80;88.50;;;;;;5091671;28;20097;-62
2022/04/14 05:01:12;;;;;;;10.05;7.63;;;18.80;85.40;;;;;;5092605;28;20055;-62
2022/04/14 05:03:38;;;;;;;12.40;7.35;;;18.80;88.50;;;;;;5077068;28;20044;-62
2022/04/14 05:06:04;;;;;;;11.73;7.35;;;18.70;85.70;;;;;;5091329;28;20071;-62
2022/04/14 05:08:32;;;;;;;11.73;7.88;;;18.60;88.30;;;;;;5078206;28;20122;-62
2022/04/14 05:10:58;;;;;;;13.55;8.02;;;18.50;88.40;;;;;;5076050;28;20045;-62
2022/04/14 05:13:24;;;;;;;11.02;7.25;;;18.70;85.70;;;;;;5072647;28;20053;-62
2022/04/14 05:15:50;;;;;;;13.23;7.90;;;18.70;88.40;;;;;;5074467;28;20066;-63
2022/04/14 05:18:16;;;;;;;11.70;7.80;;;18.70;85.70;;;;;;5085875;28;20036;-62
2022/04/14 05:20:42;;;;;;;14.38;8.43;;;18.30;88.20;;;;;;5080859;28;20478;-62
2022/04/14 05:23:11;;;;;;;14.15;8.40;;;18.70;88.50;;;;;;5088181;28;20044;-63
2022/04/14 05:25:39;;;;;;;11.15;7.95;;;18.50;85.10;;;;;;5076504;28;20554;-62
2022/04/14 05:28:05;;;;;;;16.75;8.73;;;18.40;88.20;;;;;;5083227;28;20119;-62
2022/04/14 05:30:31;;;;;;;11.88;8.02;;;18.80;88.30;;;;;;5087841;28;20426;-62
2022/04/14 05:32:57;;;;;;;12.18;8.75;;;;;;;;;;5073808;28;20087;-62
2022/04/14 05:35:23;;;;;;;12.35;7.65;;;18.80;88.50;;;;;;5074184;28;20132;-62
2022/04/14 05:37:48;;;;;;;15.38;8.65;;;18.80;88.30;;;;;;5075070;28;20119;-62
2022/04/14 05:40:15;;;;;;;12.80;8.07;;;;;;;;;;5093955;28;20040;-63
2022/04/14 05:42:46;;;;;;;13.27;8.52;;;18.80;88.00;;;;;;5089704;28;20048;-63
2022/04/14 05:45:12;;;;;;;12.20;8.38;;;19.10;88.00;;;;;;5094274;28;20496;-62
2022/04/14 05:47:38;;;;;;;11.77;7.88;;;19.10;87.80;;;;;;5093967;28;20126;-63
2022/04/14 05:50:05;;;;;;;11.32;8.00;;;19.20;85.00;;;;;;5080777;28;20137;-63
2022/04/14 05:52:30;;;;;;;12.32;9.05;;;19.20;87.40;;;;;;5055375;28;20508;-62
2022/04/14 05:55:01;;;;;;;12.18;7.75;;;19.40;84.70;;;;;;5073925;28;20068;-62
2022/04/14 05:57:27;;;;;;;14.38;8.77;;;;;;;;;;5087556;28;20047;-62
2022/04/14 05:59:53;;;;;;;13.55;8.85;;;19.60;86.90;;;;;;5082839;28;20088;-62
2022/04/14 06:02:19;;;;;;;9.70;7.10;;;19.80;86.80;;;;;;5086875;28;20071;-62
2022/04/14 06:04:45;;;;;;;11.93;7.38;;;20.00;86.60;;;;;;5073724;28;20044;-63
2022/04/14 06:07:10;;;;;;;12.70;7.78;;;19.80;83.60;;;;;;5073448;28;20060;-67
2022/04/14 06:09:36;;;;;;;11.85;7.82;;;19.90;86.10;;;;;;5073644;28;20032;-63
2022/04/14 06:12:02;;;;;;;13.32;8.23;;;20.00;85.80;;;;;;5071769;28;20521;-62
2022/04/14 06:14:30;;;;;;;9.93;7.13;;;20.40;85.90;;;;;;5074719;28;20490;-62
2022/04/14 06:16:56;;;;;;;12.60;8.40;;;20.40;85.80;;;;;;5082225;28;20036;-63
2022/04/14 06:19:22;;;;;;;11.27;7.47;;;20.50;84.50;;;;;;5072006;28;20110;-63
2022/04/14 06:21:47;;;;;;;11.35;7.45;;;20.50;85.40;;;;;;5073278;28;20040;-65
2022/04/14 06:24:13;;;;;;;13.25;7.78;;;20.80;85.40;;;;;;5074945;28;20053;-69
2022/04/14 06:26:39;;;;;;;10.60;7.72;;;20.70;85.10;;;;;;5073217;28;20059;-63
2022/04/14 06:29:05;;;;;;;12.45;8.20;;;20.70;84.80;;;;;;5055017;28;20040;-65
2022/04/14 06:31:31;;;;;;;12.95;8.02;;;20.80;84.80;;;;;;5073643;28;20055;-68
2022/04/14 06:33:57;;;;;;;12.15;8.18;;;21.10;84.70;;;;;;5080146;28;20126;-68
2022/04/14 06:36:22;;;;;;;14.07;8.10;;;21.30;84.70;;;;;;5092146;28;20044;-68
2022/04/14 06:38:48;;;;;;;12.23;8.63;;;21.30;84.30;;;;;;5093404;28;20048;-63
2022/04/14 06:41:14;;;;;;;13.65;8.20;;;21.10;84.20;;;;;;5092350;28;20039;-62
2022/04/14 06:43:39;;;;;;;12.70;8.60;;;21.40;84.20;;;;;;5066151;28;20119;-63
2022/04/14 06:46:06;;;;;;;12.00;8.02;;;;;;;;;;5074380;28;20053;-62
2022/04/14 06:48:31;;;;;;;12.45;8.55;;;21.50;83.90;;;;;;5073460;28;20045;-63
2022/04/14 06:51:00;;;;;;;12.88;8.45;;;21.60;83.70;;;;;;5091636;28;20052;-63
2022/04/14 06:53:27;;;;;;;13.63;7.60;;;21.60;83.60;;;;;;5057052;28;20056;-63
2022/04/14 06:55:53;;;;;;;14.18;8.13;;;21.80;83.50;;;;;;5085191;28;20040;-63
2022/04/14 06:58:20;;;;;;;10.95;8.15;;;21.40;83.20;;;;;;5075827;28;20120;-62
2022/04/14 07:00:46;;;;;;;13.13;8.45;;;21.80;83.20;;;;;;5059104;28;20120;-62
2022/04/14 07:03:12;;;;;;;11.88;8.57;;;21.90;80.60;;;;;;5058843;28;20105;-62
2022/04/14 07:05:38;;;;;;;11.68;7.78;;;21.70;83.10;;;;;;5079341;28;20487;-63
2022/04/14 07:08:04;;;;;;;12.07;8.60;;;21.90;80.40;;;;;;5097599;28;20044;-62
2022/04/14 07:10:29;;;;;;;13.20;8.88;;;22.00;80.00;;;;;;5096913;28;20130;-62
2022/04/14 07:12:55;;;;;;;15.23;9.25;;;22.00;82.80;;;;;;5096924;28;20040;-64
2022/04/14 07:15:21;;;;;;;15.75;9.80;;;22.00;80.30;;;;;;5095125;28;20441;-63
2022/04/14 07:17:47;;;;;;;16.25;10.68;;;22.00;82.90;;;;;;5080340;28;20079;-62
2022/04/14 07:20:13;;;;;;;13.65;10.35;;;22.00;80.10;;;;;;5075159;28;20058;-68
2022/04/14 07:22:46;;;;;;;15.20;9.95;;;22.00;82.70;;;;;;5083723;28;20082;-63
2022/04/14 07:25:12;;;;;;;13.98;9.70;;;22.10;82.60;;;;;;5076068;28;20494;-63
2022/04/14 07:27:38;;;;;;;13.20;9.57;;;22.10;82.70;;;;;;5078640;28;20044;-63
2022/04/14 07:30:04;;;;;;;14.43;10.73;;;22.10;82.70;;;;;;5076236;28;20452;-62
2022/04/14 07:32:43;;;;;;;15.07;9.55;;;22.30;82.70;;;;;;5076177;28;20056;-62
2022/04/14 07:35:08;;;;;;;15.13;9.68;;;22.20;82.50;;;;;;5076454;28;20367;-62
2022/04/14 07:37:36;;;;;;;15.85;10.80;;;22.30;82.60;;;;;;5085574;28;20051;-64
2022/04/14 07:40:03;;;;;;;15.85;10.63;;;22.40;80.40;;;;;;5091060;28;20041;-62
2022/04/14 07:42:39;;;;;;;14.00;10.23;;;22.40;82.40;;;;;;5074885;28;20051;-62
2022/04/14 07:45:06;;;;;;;15.07;9.30;;;22.50;82.40;;;;;;5075994;28;20080;-63
2022/04/14 07:47:32;;;;;;;14.35;9.90;;;22.50;82.30;;;;;;5075705;28;20051;-68
2022/04/14 07:49:58;;;;;;;14.70;9.77;;;22.30;82.10;;;;;;5091006;28;20056;-67
2022/04/14 07:52:24;;;;;;;13.68;9.73;;;22.50;82.10;;;;;;5096327;28;20086;-63
2022/04/14 07:54:49;;;;;;;15.38;10.48;;;22.60;82.30;;;;;;5096463;28;20587;-63
2022/04/14 07:57:15;;;;;;;14.23;9.88;;;22.70;82.00;;;;;;5089592;28;20470;-63
2022/04/14 07:59:41;;;;;;;13.60;9.43;;;22.70;81.80;;;;;;5078045;28;20079;-63
2022/04/14 08:02:07;;;;;;;14.40;9.55;;;22.70;79.10;;;;;;5089267;28;20501;-62
2022/04/14 08:04:33;;;;;;;12.15;8.85;;;22.60;81.50;;;;;;5074717;28;20051;-68
2022/04/14 08:06:59;;;;;;;13.50;9.30;;;22.70;78.80;;;;;;5075934;28;20131;-62
2022/04/14 08:09:25;;;;;;;12.40;8.43;;;;;;;;;;5082336;28;20040;-65
2022/04/14 08:11:51;;;;;;;11.70;8.30;;;22.80;81.60;;;;;;5082094;28;20050;-62
2022/04/14 08:14:17;;;;;;;12.55;7.97;;;22.90;78.90;;;;;;5087037;28;20092;-62
2022/04/14 08:16:43;;;;;;;12.30;7.82;;;23.00;78.70;;;;;;5088337;28;20078;-62
2022/04/14 08:19:08;;;;;;;10.00;6.93;;;23.10;79.00;;;;;;5092517;28;20044;-62
2022/04/14 08:21:34;;;;;;;13.23;7.88;;;23.10;81.60;;;;;;5092322;28;20101;-61
2022/04/14 08:24:01;;;;;;;13.10;7.15;;;22.90;81.30;;;;;;5094015;28;20551;-62
2022/04/14 08:26:26;;;;;;;12.45;6.97;;;23.10;78.40;;;;;;5095790;28;20040;-62
2022/04/14 08:28:55;;;;;;;10.93;6.40;;;23.00;81.20;;;;;;5091825;28;20063;-62
2022/04/14 08:31:21;;;;;;;10.60;6.43;;;23.10;78.50;;;;;;5079300;28;20049;-63
2022/04/14 08:33:50;;;;;;;10.93;6.32;;;23.30;81.10;;;;;;5074908;28;20123;-63
2022/04/14 08:36:16;;;;;;;12.85;6.72;;;23.00;78.60;;;;;;5075047;28;20474;-64
2022/04/14 08:38:46;;;;;;;9.55;5.75;;;;;;;;;;5074947;28;20056;-69
2022/04/14 08:41:17;;;;;;;10.82;5.97;;;23.30;81.00;;;;;;5076834;28;20052;-62
2022/04/14 08:43:47;;;;;;;9.93;5.60;;;23.30;77.00;;;;;;5076718;28;20533;-63
2022/04/14 08:46:13;;;;;;;9.93;6.20;;;23.40;80.90;;;;;;5075023;28;20057;-62
2022/04/14 08:48:39;;;;;;;8.20;5.70;;;23.30;80.70;;;;;;5084053;28;20052;-63
2022/04/14 08:51:05;;;;;;;8.57;5.72;;;23.40;77.80;;;;;;5058242;28;20105;-63
2022/04/14 08:53:31;;;;;;;9.60;6.53;;;23.30;80.70;;;;;;5075675;28;20056;-63
2022/04/14 08:55:57;;;;;;;9.07;6.07;;;23.40;77.80;;;;;;5074086;28;20053;-63
2022/04/14 08:58:26;;;;;;;8.88;5.25;;;23.50;80.70;;;;;;5040474;28;20482;-68
2022/04/14 09:00:54;;;;;;;6.78;4.43;;;23.40;80.70;;;;;;5083800;28;20043;-62
2022/04/14 09:03:20;;;;;;;6.90;4.45;;;23.50;81.20;;;;;;5086193;28;20032;-63
2022/04/14 09:05:46;;;;;;;8.25;4.82;;;23.50;80.80;;;;;;5085324;28;20048;-64
2022/04/14 09:08:12;;;;;;;9.13;5.03;;;;;;;;;;5094985;28;20089;-64
2022/04/14 09:10:39;;;;;;;6.78;4.43;;;23.60;80.70;;;;;;5093694;28;20039;-61
2022/04/14 09:13:04;;;;;;;7.88;4.78;;;23.60;77.90;;;;;;5094676;28;20072;-64
2022/04/14 09:15:30;;;;;;;7.65;4.68;;;23.60;80.60;;;;;;5074952;28;20536;-68
2022/04/14 09:17:56;;;;;;;9.00;5.30;;;23.50;80.40;;;;;;5073343;28;20075;-63
2022/04/14 09:20:31;;;;;;;19.40;5.97;;;23.70;80.70;;;;;;5087761;28;20466;-66
2022/04/14 09:23:15;;;;;;;17.38;5.38;;;23.60;80.60;;;;;;5082424;28;20469;-63
2022/04/14 09:25:42;;;;;;;11.55;5.15;;;23.70;80.60;;;;;;5088038;28;20131;-62
2022/04/14 09:28:12;;;;;;;12.10;5.13;;;23.40;77.70;;;;;;5093562;28;20048;-61
2022/04/14 09:30:38;;;;;;;9.27;4.55;;;23.50;80.40;;;;;;5084450;28;20052;-62
2022/04/14 09:33:04;;;;;;;12.15;6.00;;;23.60;77.70;;;;;;5092922;28;20048;-61
2022/04/14 09:35:31;;;;;;;10.27;5.43;;;23.70;77.60;;;;;;5093323;28;20036;-61
2022/04/14 09:38:04;;;;;;;9.27;4.85;;;23.60;80.50;;;;;;5092919;28;20486;-61
2022/04/14 09:40:30;;;;;;;8.57;4.68;;;23.40;76.50;;;;;;5082128;28;20047;-61
2022/04/14 09:42:56;;;;;;;8.07;4.55;;;23.60;80.50;;;;;;5072825;28;20036;-61
2022/04/14 09:45:26;;;;;;;8.63;4.82;;;23.70;80.60;;;;;;5074025;28;20051;-62
2022/04/14 09:48:01;;;;;;;10.15;4.72;;;23.60;78.10;;;;;;5073924;28;20079;-61
2022/04/14 09:50:28;;;;;;;8.50;4.50;;;23.40;80.40;;;;;;5073412;28;20047;-62
2022/04/14 09:53:08;;;;;;;9.73;5.95;;;23.60;77.90;;;;;;5073868;28;20048;-62
2022/04/14 09:55:38;;;;;;;9.18;4.97;;;23.70;80.50;;;;;;5074598;28;20044;-63
2022/04/14 09:58:15;;;;;;;8.75;5.38;;;23.60;78.00;;;;;;5092959;28;20405;-62
2022/04/14 10:00:51;;;;;;;7.90;4.28;;;23.70;80.50;;;;;;5092797;28;20051;-61
2022/04/14 10:03:25;;;;;;;8.32;5.05;;;23.60;80.40;;;;;;5073767;28;20083;-62
2022/04/14 10:05:53;;;;;;;7.25;4.97;;;23.60;78.10;;;;;;5072452;28;20056;-62
2022/04/14 10:08:19;;;;;;;8.27;4.55;;;23.50;77.80;;;;;;5073724;28;20045;-61
2022/04/14 10:10:46;;;;;;;7.07;3.95;;;23.80;77.70;;;;;;5072483;28;20048;-63
2022/04/14 10:13:16;;;;;;;6.57;4.07;;;23.80;78.10;;;;;;5072505;28;20406;-62
2022/04/14 10:15:46;;;;;;;5.75;3.60;;;23.50;80.70;;;;;;5073608;28;20072;-62
2022/04/14 10:18:16;;;;;;;7.05;3.78;;;23.50;80.90;;;;;;5073495;28;20457;-61
2022/04/14 10:20:46;;;;;;;6.45;3.28;;;23.30;81.00;;;;;;5072038;28;20494;-61
2022/04/14 10:23:14;;;;;;;7.93;3.63;;;23.40;78.10;;;;;;5058315;28;20102;-66
2022/04/14 10:25:40;;;;;;;5.45;3.20;;;23.70;81.10;;;;;;5071742;28;20041;-62
2022/04/14 10:28:07;;;;;;;9.93;3.58;;;23.50;77.80;;;;;;5075070;28;20399;-65
2022/04/14 10:30:33;;;;;;;7.80;3.65;;;23.10;78.20;;;;;;5089691;28;20440;-62
2022/04/14 10:32:59;;;;;;;10.50;3.78;;;23.40;81.00;;;;;;5090435;28;20051;-62
2022/04/14 10:35:26;;;;;;;10.00;3.60;;;23.40;81.00;;;;;;5074968;28;20052;-64
2022/04/14 10:37:57;;;;;;;13.18;3.92;;;23.10;76.30;;;;;;5090296;28;20076;-68
2022/04/14 10:40:23;;;;;;;8.32;3.05;;;23.20;78.40;;;;;;5073170;28;20056;-62
2022/04/14 10:42:51;;;;;;;6.93;3.53;;;23.20;79.90;;;;;;5055532;28;20051;-62
2022/04/14 10:45:22;;;;;;;6.55;3.00;;;23.30;81.30;;;;;;5056305;28;20059;-62
2022/04/14 10:47:52;;;;;;;7.53;2.97;;;23.20;78.70;;;;;;5060156;28;20489;-62
2022/04/14 10:50:21;;;;;;;7.13;2.95;;;23.30;78.90;;;;;;5088362;28;20040;-62
2022/04/14 10:53:12;;;;;;;5.38;2.83;;;23.40;78.80;;;;;;5092064;28;20379;-62
2022/04/14 10:55:45;;;;;;;7.18;2.58;;;23.20;81.80;;;;;;5078156;28;20087;-62
2022/04/14 10:58:29;;;;;;;5.00;2.38;;;23.10;81.60;;;;;;5055394;28;20048;-62
2022/04/14 11:00:55;;;;;;;5.78;2.83;;;23.10;81.90;;;;;;5087935;28;20048;-63
2022/04/14 11:03:46;;;;;;;4.60;2.33;;;23.40;81.90;;;;;;5091863;28;20055;-61
2022/04/14 11:06:37;;;;;;;5.55;2.50;;;23.20;78.00;;;;;;5073532;28;20508;-62
2022/04/14 11:09:03;;;;;;;4.60;2.50;;;23.30;77.80;;;;;;5072836;28;20055;-62
2022/04/14 11:11:28;;;;;;;4.53;2.40;;;23.40;82.10;;;;;;5073828;28;20045;-61
2022/04/14 11:13:55;;;;;;;4.35;2.33;;;23.30;79.00;;;;;;5072599;28;20096;-63
2022/04/14 11:16:47;;;;;;;5.45;2.42;;;23.20;79.00;;;;;;5072538;28;20087;-61
2022/04/14 11:19:19;;;;;;;4.47;2.25;;;23.30;82.30;;;;;;5072789;28;20048;-61
2022/04/14 11:22:04;;;;;;;6.93;2.23;;;23.20;79.40;;;;;;5083902;28;20397;-63
2022/04/14 11:24:36;;;;;;;5.15;3.00;;;23.10;82.00;;;;;;5092001;28;20088;-63
2022/04/14 11:27:14;;;;;;;5.95;2.35;;;23.20;79.30;;;;;;5085667;28;20048;-62
2022/04/14 11:29:42;;;;;;;5.80;2.13;;;23.30;82.10;;;;;;5071296;28;20510;-62
2022/04/14 11:32:08;;;;;;;5.28;2.20;;;23.20;82.00;;;;;;5077109;28;20047;-62
2022/04/14 11:34:34;;;;;;;4.80;2.50;;;23.10;82.00;;;;;;5089103;28;20044;-62
2022/04/14 11:37:01;;;;;;;7.00;2.72;;;23.00;82.00;;;;;;5075077;28;20056;-61
2022/04/14 11:39:27;;;;;;;4.75;2.70;;;23.10;82.00;;;;;;5075467;28;20055;-62
2022/04/14 11:41:53;;;;;;;5.18;2.58;;;23.30;82.10;;;;;;5087459;28;20094;-62
2022/04/14 11:44:20;;;;;;;4.30;2.20;;;23.30;79.50;;;;;;5095106;28;20051;-62
2022/04/14 11:46:49;;;;;;;4.63;2.17;;;23.30;82.20;;;;;;5094610;28;20059;-62
2022/04/14 11:49:19;;;;;;;5.50;2.33;;;23.20;82.30;;;;;;5082078;28;20114;-62
2022/04/14 11:51:47;;;;;;;3.22;1.90;;;23.30;79.70;;;;;;5096104;28;20101;-62
2022/04/14 11:54:13;;;;;;;4.25;2.10;;;23.30;82.20;;;;;;5091625;28;20131;-69
2022/04/14 11:56:39;;;;;;;5.53;2.20;;;;;;;;;;5089423;28;20114;-61
2022/04/14 11:59:08;;;;;;;7.32;2.55;;;23.40;77.50;;;;;;5075577;28;20459;-61
2022/04/14 12:01:36;;;;;;;7.35;2.40;;;23.20;82.20;;;;;;5080841;28;20052;-61
2022/04/14 12:04:01;;;;;;;8.57;2.42;;;23.00;79.50;;;;;;5094747;28;20048;-61
2022/04/14 12:06:27;;;;;;;6.63;2.72;;;23.00;82.00;;;;;;5094444;28;20043;-62
2022/04/14 12:08:56;;;;;;;5.55;2.50;;;23.00;79.10;;;;;;5096127;28;20040;-62
2022/04/14 12:11:24;;;;;;;6.88;2.35;;;23.20;82.00;;;;;;5076758;28;20072;-63
2022/04/14 12:13:50;;;;;;;5.50;2.17;;;23.30;79.30;;;;;;5087475;28;20053;-62
2022/04/14 12:16:16;;;;;;;6.28;2.38;;;23.40;78.90;;;;;;5075717;28;20055;-62
2022/04/14 12:18:51;;;;;;;4.40;2.13;;;23.40;82.00;;;;;;5075686;28;20449;-62
2022/04/14 12:21:20;;;;;;;3.80;2.10;;;23.40;82.10;;;;;;5074551;28;20086;-62
2022/04/14 12:23:47;;;;;;;4.82;2.42;;;23.40;82.00;;;;;;5056966;28;20040;-62
2022/04/14 12:26:13;;;;;;;6.20;2.15;;;23.30;81.70;;;;;;5074137;28;20086;-63
2022/04/14 12:28:39;;;;;;;5.03;2.30;;;23.40;81.80;;;;;;5041990;28;20036;-63
2022/04/14 12:31:11;;;;;;;5.15;2.08;;;23.70;78.80;;;;;;5057695;28;20041;-62
2022/04/14 12:33:37;;;;;;;3.95;2.15;;;23.40;79.20;;;;;;5073808;28;20101;-62
2022/04/14 12:36:07;;;;;;;5.35;2.55;;;23.30;81.70;;;;;;5074087;28;20052;-62
2022/04/14 12:38:43;;;;;;;3.95;2.15;;;23.30;81.60;;;;;;5073801;28;20062;-62
2022/04/14 12:41:17;;;;;;;5.75;2.15;;;23.40;82.00;;;;;;5073981;28;20092;-62
2022/04/14 12:43:48;;;;;;;4.72;2.30;;;23.30;79.10;;;;;;5057627;28;20057;-63
2022/04/14 12:46:27;;;;;;;6.57;2.58;;;23.30;81.90;;;;;;5074923;28;20040;-62
2022/04/14 12:48:59;;;;;;;3.95;2.10;;;23.50;81.50;;;;;;5073571;28;20044;-62